sensor_id;sensor_type;location;lat;lon;timestamp;temperature;humidity
22734;DHT22;11534;51.994;5.692;2024-01-30T00:01:51;7.40;99.90
22734;DHT22;11534;51.994;5.692;2024-01-30T00:04:17;7.30;99.90
22734;DHT22;11534;51.994;5.692;2024-01-30T00:06:43;7.30;99.90
22734;DHT22;11534;51.994;5.692;2024-01-30T00:09:09;7.40;99.90
22734;DHT22;11534;51.994;5.692;2024-01-30T00:11:36;7.40;99.90
22734;DHT22;11534;51.994;5.692;2024-01-30T00:14:03;7.40;99.90
22734;DHT22;11534;51.994;5.692;2024-01-30T00:16:29;7.50;99.90
22734;DHT22;11534;51.994;5.692;2024-01-30T00:18:55;7.50;99.90
22734;DHT22;11534;51.994;5.692;2024-01-30T00:21:21;7.50;99.90
22734;DHT22;11534;51.994;5.692;2024-01-30T00:23:47;7.40;99.90
22734;DHT22;11534;51.994;5.692;2024-01-30T00:26:12;7.40;99.90
22734;DHT22;11534;51.994;5.692;2024-01-30T00:28:40;7.30;99.90
22734;DHT22;11534;51.994;5.692;2024-01-30T00:31:06;7.20;99.90
22734;DHT22;11534;51.994;5.692;2024-01-30T00:33:31;7.20;99.90
22734;DHT22;11534;51.994;5.692;2024-01-30T00:35:57;7.20;99.90
22734;DHT22;11534;51.994;5.692;2024-01-30T00:38:23;7.20;99.90
22734;DHT22;11534;51.994;5.692;2024-01-30T00:40:48;7.10;99.90
22734;DHT22;11534;51.994;5.692;2024-01-30T00:43:15;7.00;99.90
22734;DHT22;11534;51.994;5.692;2024-01-30T00:45:41;7.10;99.90
22734;DHT22;11534;51.994;5.692;2024-01-30T00:48:07;7.00;99.90
22734;DHT22;11534;51.994;5.692;2024-01-30T00:50:32;7.00;99.90
22734;DHT22;11534;51.994;5.692;2024-01-30T00:52:58;7.00;99.90
22734;DHT22;11534;51.994;5.692;2024-01-30T00:55:23;6.90;99.90
22734;DHT22;11534;51.994;5.692;2024-01-30T00:57:49;7.00;99.90
22734;DHT22;11534;51.994;5.692;2024-01-30T01:00:15;7.00;99.90
22734;DHT22;11534;51.994;5.692;2024-01-30T01:02:44;7.00;99.90
22734;DHT22;11534;51.994;5.692;2024-01-30T01:05:10;6.90;99.90
22734;DHT22;11534;51.994;5.692;2024-01-30T01:07:36;7.00;99.90
22734;DHT22;11534;51.994;5.692;2024-01-30T01:10:01;7.00;99.90
22734;DHT22;11534;51.994;5.692;2024-01-30T01:12:28;6.90;99.90
22734;DHT22;11534;51.994;5.692;2024-01-30T01:14:53;7.00;99.90
22734;DHT22;11534;51.994;5.692;2024-01-30T01:17:19;6.90;99.90
22734;DHT22;11534;51.994;5.692;2024-01-30T01:19:44;6.90;99.90
22734;DHT22;11534;51.994;5.692;2024-01-30T01:22:10;6.90;99.90
22734;DHT22;11534;51.994;5.692;2024-01-30T01:24:36;6.90;99.90
22734;DHT22;11534;51.994;5.692;2024-01-30T01:27:04;7.00;99.90
22734;DHT22;11534;51.994;5.692;2024-01-30T01:29:31;6.90;99.90
22734;DHT22;11534;51.994;5.692;2024-01-30T01:31:58;6.80;99.90
22734;DHT22;11534;51.994;5.692;2024-01-30T01:34:24;6.80;99.90
22734;DHT22;11534;51.994;5.692;2024-01-30T01:36:50;6.70;99.90
22734;DHT22;11534;51.994;5.692;2024-01-30T01:39:17;6.70;99.90
22734;DHT22;11534;51.994;5.692;2024-01-30T01:41:43;6.70;99.90
22734;DHT22;11534;51.994;5.692;2024-01-30T01:44:09;6.60;99.90
22734;DHT22;11534;51.994;5.692;2024-01-30T01:46:35;6.60;99.90
22734;DHT22;11534;51.994;5.692;2024-01-30T01:49:02;6.60;99.90
22734;DHT22;11534;51.994;5.692;2024-01-30T01:51:31;6.50;99.90
22734;DHT22;11534;51.994;5.692;2024-01-30T01:53:59;6.60;99.90
22734;DHT22;11534;51.994;5.692;2024-01-30T01:56:26;6.60;99.90
22734;DHT22;11534;51.994;5.692;2024-01-30T01:58:54;6.60;99.90
22734;DHT22;11534;51.994;5.692;2024-01-30T02:01:21;6.60;99.90
22734;DHT22;11534;51.994;5.692;2024-01-30T02:03:46;6.70;99.90
22734;DHT22;11534;51.994;5.692;2024-01-30T02:06:16;6.70;99.90
22734;DHT22;11534;51.994;5.692;2024-01-30T02:08:42;6.70;99.90
22734;DHT22;11534;51.994;5.692;2024-01-30T02:11:08;6.70;99.90
22734;DHT22;11534;51.994;5.692;2024-01-30T02:13:34;6.80;99.90
22734;DHT22;11534;51.994;5.692;2024-01-30T02:16:00;6.80;99.90
22734;DHT22;11534;51.994;5.692;2024-01-30T02:18:26;6.80;99.90
22734;DHT22;11534;51.994;5.692;2024-01-30T02:20:53;6.70;99.90
22734;DHT22;11534;51.994;5.692;2024-01-30T02:23:20;6.80;99.90
22734;DHT22;11534;51.994;5.692;2024-01-30T02:25:46;6.90;99.90
22734;DHT22;11534;51.994;5.692;2024-01-30T02:28:15;6.90;99.90
22734;DHT22;11534;51.994;5.692;2024-01-30T02:30:43;6.90;99.90
22734;DHT22;11534;51.994;5.692;2024-01-30T02:33:09;6.90;99.90
22734;DHT22;11534;51.994;5.692;2024-01-30T02:35:34;6.90;99.90
22734;DHT22;11534;51.994;5.692;2024-01-30T02:38:00;6.90;99.90
22734;DHT22;11534;51.994;5.692;2024-01-30T02:40:26;6.80;99.90
22734;DHT22;11534;51.994;5.692;2024-01-30T02:42:51;6.80;99.90
22734;DHT22;11534;51.994;5.692;2024-01-30T02:45:17;6.70;99.90
22734;DHT22;11534;51.994;5.692;2024-01-30T02:47:43;6.70;99.90
22734;DHT22;11534;51.994;5.692;2024-01-30T02:50:09;6.70;99.90
22734;DHT22;11534;51.994;5.692;2024-01-30T02:52:35;6.70;99.90
22734;DHT22;11534;51.994;5.692;2024-01-30T02:55:01;6.80;99.90
22734;DHT22;11534;51.994;5.692;2024-01-30T02:57:27;6.80;99.90
22734;DHT22;11534;51.994;5.692;2024-01-30T02:59:53;6.90;99.90
22734;DHT22;11534;51.994;5.692;2024-01-30T03:02:18;6.90;99.90
22734;DHT22;11534;51.994;5.692;2024-01-30T03:04:45;6.90;99.90
22734;DHT22;11534;51.994;5.692;2024-01-30T03:07:10;6.80;99.90
22734;DHT22;11534;51.994;5.692;2024-01-30T03:09:36;6.70;99.90
22734;DHT22;11534;51.994;5.692;2024-01-30T03:12:03;6.80;99.90
22734;DHT22;11534;51.994;5.692;2024-01-30T03:14:30;6.70;99.90
22734;DHT22;11534;51.994;5.692;2024-01-30T03:16:56;6.70;99.90
22734;DHT22;11534;51.994;5.692;2024-01-30T03:19:22;6.60;99.90
22734;DHT22;11534;51.994;5.692;2024-01-30T03:21:48;6.70;99.90
22734;DHT22;11534;51.994;5.692;2024-01-30T03:24:13;6.80;99.90
22734;DHT22;11534;51.994;5.692;2024-01-30T03:26:39;6.80;99.90
22734;DHT22;11534;51.994;5.692;2024-01-30T03:29:05;6.70;99.90
22734;DHT22;11534;51.994;5.692;2024-01-30T03:31:30;6.60;99.90
22734;DHT22;11534;51.994;5.692;2024-01-30T03:33:56;6.60;99.90
22734;DHT22;11534;51.994;5.692;2024-01-30T03:36:21;6.50;99.90
22734;DHT22;11534;51.994;5.692;2024-01-30T03:38:47;6.50;99.90
22734;DHT22;11534;51.994;5.692;2024-01-30T03:41:13;6.50;99.90
22734;DHT22;11534;51.994;5.692;2024-01-30T03:43:39;6.60;99.90
22734;DHT22;11534;51.994;5.692;2024-01-30T03:46:05;6.60;99.90
22734;DHT22;11534;51.994;5.692;2024-01-30T03:48:31;6.60;99.90
22734;DHT22;11534;51.994;5.692;2024-01-30T03:50:57;6.60;99.90
22734;DHT22;11534;51.994;5.692;2024-01-30T03:53:22;6.70;99.90
22734;DHT22;11534;51.994;5.692;2024-01-30T03:55:48;6.70;99.90
22734;DHT22;11534;51.994;5.692;2024-01-30T03:58:14;6.70;99.90
22734;DHT22;11534;51.994;5.692;2024-01-30T04:00:39;6.80;99.90
22734;DHT22;11534;51.994;5.692;2024-01-30T04:03:06;6.80;99.90
22734;DHT22;11534;51.994;5.692;2024-01-30T04:05:32;6.80;99.90
22734;DHT22;11534;51.994;5.692;2024-01-30T04:07:58;6.70;99.90
22734;DHT22;11534;51.994;5.692;2024-01-30T04:10:24;6.70;99.90
22734;DHT22;11534;51.994;5.692;2024-01-30T04:12:52;6.80;99.90
22734;DHT22;11534;51.994;5.692;2024-01-30T04:15:19;6.80;99.90
22734;DHT22;11534;51.994;5.692;2024-01-30T04:17:45;6.80;99.90
22734;DHT22;11534;51.994;5.692;2024-01-30T04:20:14;6.80;99.90
22734;DHT22;11534;51.994;5.692;2024-01-30T04:22:45;6.80;99.90
22734;DHT22;11534;51.994;5.692;2024-01-30T04:25:11;6.80;99.90
22734;DHT22;11534;51.994;5.692;2024-01-30T04:27:37;6.90;99.90
22734;DHT22;11534;51.994;5.692;2024-01-30T04:30:03;6.80;99.90
22734;DHT22;11534;51.994;5.692;2024-01-30T04:32:29;6.90;99.90
22734;DHT22;11534;51.994;5.692;2024-01-30T04:34:55;6.80;99.90
22734;DHT22;11534;51.994;5.692;2024-01-30T04:37:21;6.90;99.90
22734;DHT22;11534;51.994;5.692;2024-01-30T04:39:46;6.90;99.90
22734;DHT22;11534;51.994;5.692;2024-01-30T04:42:12;6.90;99.90
22734;DHT22;11534;51.994;5.692;2024-01-30T04:44:38;6.80;99.90
22734;DHT22;11534;51.994;5.692;2024-01-30T04:47:04;6.90;99.90
22734;DHT22;11534;51.994;5.692;2024-01-30T04:49:31;6.90;99.90
22734;DHT22;11534;51.994;5.692;2024-01-30T04:51:57;6.90;99.90
22734;DHT22;11534;51.994;5.692;2024-01-30T04:54:23;6.90;99.90
22734;DHT22;11534;51.994;5.692;2024-01-30T04:56:49;7.00;99.90
22734;DHT22;11534;51.994;5.692;2024-01-30T04:59:15;7.00;99.90
22734;DHT22;11534;51.994;5.692;2024-01-30T05:01:40;7.00;99.90
22734;DHT22;11534;51.994;5.692;2024-01-30T05:04:09;6.90;99.90
22734;DHT22;11534;51.994;5.692;2024-01-30T05:06:35;7.00;99.90
22734;DHT22;11534;51.994;5.692;2024-01-30T05:09:01;7.10;99.90
22734;DHT22;11534;51.994;5.692;2024-01-30T05:11:26;7.00;99.90
22734;DHT22;11534;51.994;5.692;2024-01-30T05:13:52;7.10;99.90
22734;DHT22;11534;51.994;5.692;2024-01-30T05:16:18;7.20;99.90
22734;DHT22;11534;51.994;5.692;2024-01-30T05:18:44;7.10;99.90
22734;DHT22;11534;51.994;5.692;2024-01-30T05:21:10;7.10;99.90
22734;DHT22;11534;51.994;5.692;2024-01-30T05:23:36;7.10;99.90
22734;DHT22;11534;51.994;5.692;2024-01-30T05:26:02;7.10;99.90
22734;DHT22;11534;51.994;5.692;2024-01-30T05:28:29;7.20;99.90
22734;DHT22;11534;51.994;5.692;2024-01-30T05:30:56;7.10;99.90
22734;DHT22;11534;51.994;5.692;2024-01-30T05:33:21;7.10;99.90
22734;DHT22;11534;51.994;5.692;2024-01-30T05:35:47;7.10;99.90
22734;DHT22;11534;51.994;5.692;2024-01-30T05:38:15;7.20;99.90
22734;DHT22;11534;51.994;5.692;2024-01-30T05:40:41;7.20;99.90
22734;DHT22;11534;51.994;5.692;2024-01-30T05:43:07;7.20;99.90
22734;DHT22;11534;51.994;5.692;2024-01-30T05:45:33;7.10;99.90
22734;DHT22;11534;51.994;5.692;2024-01-30T05:48:00;7.10;99.90
22734;DHT22;11534;51.994;5.692;2024-01-30T05:50:26;7.10;99.90
22734;DHT22;11534;51.994;5.692;2024-01-30T05:52:52;7.10;99.90
22734;DHT22;11534;51.994;5.692;2024-01-30T05:55:18;7.10;99.90
22734;DHT22;11534;51.994;5.692;2024-01-30T05:57:44;7.10;99.90
22734;DHT22;11534;51.994;5.692;2024-01-30T06:00:10;7.20;99.90
22734;DHT22;11534;51.994;5.692;2024-01-30T06:02:36;7.20;99.90
22734;DHT22;11534;51.994;5.692;2024-01-30T06:05:01;7.20;99.90
22734;DHT22;11534;51.994;5.692;2024-01-30T06:07:27;7.30;99.90
22734;DHT22;11534;51.994;5.692;2024-01-30T06:09:53;7.30;99.90
22734;DHT22;11534;51.994;5.692;2024-01-30T06:12:18;7.30;99.90
22734;DHT22;11534;51.994;5.692;2024-01-30T06:14:44;7.40;99.90
22734;DHT22;11534;51.994;5.692;2024-01-30T06:17:10;7.40;99.90
22734;DHT22;11534;51.994;5.692;2024-01-30T06:19:37;7.30;99.90
22734;DHT22;11534;51.994;5.692;2024-01-30T06:22:04;7.40;99.90
22734;DHT22;11534;51.994;5.692;2024-01-30T06:24:29;7.40;99.90
22734;DHT22;11534;51.994;5.692;2024-01-30T06:26:55;7.40;99.90
22734;DHT22;11534;51.994;5.692;2024-01-30T06:29:21;7.40;99.90
22734;DHT22;11534;51.994;5.692;2024-01-30T06:31:47;7.40;99.90
22734;DHT22;11534;51.994;5.692;2024-01-30T06:34:12;7.30;99.90
22734;DHT22;11534;51.994;5.692;2024-01-30T06:36:38;7.40;99.90
22734;DHT22;11534;51.994;5.692;2024-01-30T06:39:04;7.40;99.90
22734;DHT22;11534;51.994;5.692;2024-01-30T06:41:30;7.40;99.90
22734;DHT22;11534;51.994;5.692;2024-01-30T06:43:56;7.40;99.90
22734;DHT22;11534;51.994;5.692;2024-01-30T06:46:22;7.40;99.90
22734;DHT22;11534;51.994;5.692;2024-01-30T06:48:47;7.50;99.90
22734;DHT22;11534;51.994;5.692;2024-01-30T06:51:13;7.50;99.90
22734;DHT22;11534;51.994;5.692;2024-01-30T06:53:39;7.50;99.90
22734;DHT22;11534;51.994;5.692;2024-01-30T06:56:05;7.50;99.90
22734;DHT22;11534;51.994;5.692;2024-01-30T06:58:31;7.50;99.90
22734;DHT22;11534;51.994;5.692;2024-01-30T07:00:58;7.50;99.90
22734;DHT22;11534;51.994;5.692;2024-01-30T07:03:24;7.60;99.90
22734;DHT22;11534;51.994;5.692;2024-01-30T07:05:50;7.50;99.90
22734;DHT22;11534;51.994;5.692;2024-01-30T07:08:16;7.60;99.90
22734;DHT22;11534;51.994;5.692;2024-01-30T07:10:45;7.50;99.90
22734;DHT22;11534;51.994;5.692;2024-01-30T07:13:13;7.60;99.90
22734;DHT22;11534;51.994;5.692;2024-01-30T07:15:42;7.60;99.90
22734;DHT22;11534;51.994;5.692;2024-01-30T07:18:08;7.70;99.90
22734;DHT22;11534;51.994;5.692;2024-01-30T07:20:35;7.70;99.90
22734;DHT22;11534;51.994;5.692;2024-01-30T07:23:01;7.70;99.90
22734;DHT22;11534;51.994;5.692;2024-01-30T07:25:27;7.70;99.90
22734;DHT22;11534;51.994;5.692;2024-01-30T07:27:55;7.70;99.90
22734;DHT22;11534;51.994;5.692;2024-01-30T07:30:21;7.80;99.90
22734;DHT22;11534;51.994;5.692;2024-01-30T07:32:47;7.80;99.90
22734;DHT22;11534;51.994;5.692;2024-01-30T07:35:13;7.70;99.90
22734;DHT22;11534;51.994;5.692;2024-01-30T07:37:39;7.70;99.90
22734;DHT22;11534;51.994;5.692;2024-01-30T07:40:05;7.70;99.90
22734;DHT22;11534;51.994;5.692;2024-01-30T07:42:32;7.70;99.90
22734;DHT22;11534;51.994;5.692;2024-01-30T07:44:58;7.70;99.90
22734;DHT22;11534;51.994;5.692;2024-01-30T07:47:23;7.70;99.90
22734;DHT22;11534;51.994;5.692;2024-01-30T07:49:49;7.80;99.90
22734;DHT22;11534;51.994;5.692;2024-01-30T07:52:15;7.80;99.90
22734;DHT22;11534;51.994;5.692;2024-01-30T07:54:50;7.80;99.90
22734;DHT22;11534;51.994;5.692;2024-01-30T07:57:16;7.80;99.90
22734;DHT22;11534;51.994;5.692;2024-01-30T07:59:43;7.80;99.90
22734;DHT22;11534;51.994;5.692;2024-01-30T08:02:15;7.90;99.90
22734;DHT22;11534;51.994;5.692;2024-01-30T08:04:40;8.00;99.90
22734;DHT22;11534;51.994;5.692;2024-01-30T08:07:06;7.90;99.90
22734;DHT22;11534;51.994;5.692;2024-01-30T08:09:32;8.00;99.90
22734;DHT22;11534;51.994;5.692;2024-01-30T08:11:58;7.90;99.90
22734;DHT22;11534;51.994;5.692;2024-01-30T08:14:24;7.90;99.90
22734;DHT22;11534;51.994;5.692;2024-01-30T08:16:51;7.90;99.90
22734;DHT22;11534;51.994;5.692;2024-01-30T08:19:16;8.00;99.90
22734;DHT22;11534;51.994;5.692;2024-01-30T08:21:42;8.00;99.90
22734;DHT22;11534;51.994;5.692;2024-01-30T08:24:08;8.00;99.90
22734;DHT22;11534;51.994;5.692;2024-01-30T08:26:34;8.00;99.90
22734;DHT22;11534;51.994;5.692;2024-01-30T08:29:01;8.10;99.90
22734;DHT22;11534;51.994;5.692;2024-01-30T08:31:26;8.20;99.90
22734;DHT22;11534;51.994;5.692;2024-01-30T08:33:52;8.20;99.90
22734;DHT22;11534;51.994;5.692;2024-01-30T08:36:18;8.20;99.90
22734;DHT22;11534;51.994;5.692;2024-01-30T08:38:44;8.30;99.90
22734;DHT22;11534;51.994;5.692;2024-01-30T08:41:10;8.40;99.90
22734;DHT22;11534;51.994;5.692;2024-01-30T08:43:36;8.40;99.90
22734;DHT22;11534;51.994;5.692;2024-01-30T08:46:03;8.40;99.90
22734;DHT22;11534;51.994;5.692;2024-01-30T08:48:29;8.40;99.90
22734;DHT22;11534;51.994;5.692;2024-01-30T08:50:55;8.50;99.90
22734;DHT22;11534;51.994;5.692;2024-01-30T08:53:20;8.50;99.90
22734;DHT22;11534;51.994;5.692;2024-01-30T08:55:46;8.60;99.90
22734;DHT22;11534;51.994;5.692;2024-01-30T08:58:12;8.60;99.90
22734;DHT22;11534;51.994;5.692;2024-01-30T09:00:38;8.60;99.90
22734;DHT22;11534;51.994;5.692;2024-01-30T09:03:03;8.60;99.90
22734;DHT22;11534;51.994;5.692;2024-01-30T09:05:29;8.70;99.90
22734;DHT22;11534;51.994;5.692;2024-01-30T09:07:55;8.80;99.90
22734;DHT22;11534;51.994;5.692;2024-01-30T09:10:21;8.80;99.90
22734;DHT22;11534;51.994;5.692;2024-01-30T09:12:47;8.80;99.90
22734;DHT22;11534;51.994;5.692;2024-01-30T09:15:13;8.90;99.90
22734;DHT22;11534;51.994;5.692;2024-01-30T09:17:39;8.90;99.90
22734;DHT22;11534;51.994;5.692;2024-01-30T09:20:05;9.00;99.90
22734;DHT22;11534;51.994;5.692;2024-01-30T09:22:31;9.00;99.90
22734;DHT22;11534;51.994;5.692;2024-01-30T09:24:57;9.10;99.90
22734;DHT22;11534;51.994;5.692;2024-01-30T09:27:23;9.10;99.90
22734;DHT22;11534;51.994;5.692;2024-01-30T09:29:49;9.10;99.90
22734;DHT22;11534;51.994;5.692;2024-01-30T09:32:15;9.10;99.90
22734;DHT22;11534;51.994;5.692;2024-01-30T09:34:41;9.10;99.90
22734;DHT22;11534;51.994;5.692;2024-01-30T09:37:07;9.10;99.90
22734;DHT22;11534;51.994;5.692;2024-01-30T09:39:33;9.20;99.90
22734;DHT22;11534;51.994;5.692;2024-01-30T09:44:53;9.30;99.90
22734;DHT22;11534;51.994;5.692;2024-01-30T09:47:19;9.40;99.90
22734;DHT22;11534;51.994;5.692;2024-01-30T09:49:45;9.40;99.90
22734;DHT22;11534;51.994;5.692;2024-01-30T09:52:11;9.40;99.90
22734;DHT22;11534;51.994;5.692;2024-01-30T09:54:38;9.50;99.90
22734;DHT22;11534;51.994;5.692;2024-01-30T09:57:04;9.50;99.90
22734;DHT22;11534;51.994;5.692;2024-01-30T09:59:31;9.60;99.90
22734;DHT22;11534;51.994;5.692;2024-01-30T10:01:57;9.60;99.90
22734;DHT22;11534;51.994;5.692;2024-01-30T10:04:23;9.60;99.90
22734;DHT22;11534;51.994;5.692;2024-01-30T10:06:50;9.60;99.90
22734;DHT22;11534;51.994;5.692;2024-01-30T10:09:16;9.60;99.90
22734;DHT22;11534;51.994;5.692;2024-01-30T10:11:41;9.60;99.90
22734;DHT22;11534;51.994;5.692;2024-01-30T10:14:07;9.70;99.90
22734;DHT22;11534;51.994;5.692;2024-01-30T10:16:34;9.70;99.90
22734;DHT22;11534;51.994;5.692;2024-01-30T10:19:00;9.80;99.90
22734;DHT22;11534;51.994;5.692;2024-01-30T10:21:26;9.80;99.90
22734;DHT22;11534;51.994;5.692;2024-01-30T10:23:52;9.80;99.90
22734;DHT22;11534;51.994;5.692;2024-01-30T10:26:18;9.90;99.90
22734;DHT22;11534;51.994;5.692;2024-01-30T10:28:43;9.90;99.90
22734;DHT22;11534;51.994;5.692;2024-01-30T10:31:09;9.90;99.90
22734;DHT22;11534;51.994;5.692;2024-01-30T10:33:35;9.90;99.90
22734;DHT22;11534;51.994;5.692;2024-01-30T10:36:02;9.90;99.90
22734;DHT22;11534;51.994;5.692;2024-01-30T10:38:29;10.00;99.90
22734;DHT22;11534;51.994;5.692;2024-01-30T10:41:00;9.90;99.90
22734;DHT22;11534;51.994;5.692;2024-01-30T10:43:41;9.90;99.90
22734;DHT22;11534;51.994;5.692;2024-01-30T10:46:10;10.00;99.90
22734;DHT22;11534;51.994;5.692;2024-01-30T10:48:42;10.00;99.90
22734;DHT22;11534;51.994;5.692;2024-01-30T10:51:10;10.00;99.90
22734;DHT22;11534;51.994;5.692;2024-01-30T10:53:38;10.20;99.90
22734;DHT22;11534;51.994;5.692;2024-01-30T10:56:05;10.30;99.90
22734;DHT22;11534;51.994;5.692;2024-01-30T10:58:30;10.50;99.90
22734;DHT22;11534;51.994;5.692;2024-01-30T11:00:57;10.60;99.90
22734;DHT22;11534;51.994;5.692;2024-01-30T11:03:26;10.80;99.90
22734;DHT22;11534;51.994;5.692;2024-01-30T11:05:52;11.00;99.90
22734;DHT22;11534;51.994;5.692;2024-01-30T11:08:25;11.10;99.90
22734;DHT22;11534;51.994;5.692;2024-01-30T11:10:58;11.10;99.90
22734;DHT22;11534;51.994;5.692;2024-01-30T11:13:30;11.20;99.90
22734;DHT22;11534;51.994;5.692;2024-01-30T11:16:04;11.20;99.90
22734;DHT22;11534;51.994;5.692;2024-01-30T11:18:33;11.20;99.90
22734;DHT22;11534;51.994;5.692;2024-01-30T11:20:59;11.20;99.90
22734;DHT22;11534;51.994;5.692;2024-01-30T11:23:28;11.10;99.90
22734;DHT22;11534;51.994;5.692;2024-01-30T11:25:55;11.10;99.90
22734;DHT22;11534;51.994;5.692;2024-01-30T11:28:21;11.10;99.90
22734;DHT22;11534;51.994;5.692;2024-01-30T11:30:47;11.10;99.90
22734;DHT22;11534;51.994;5.692;2024-01-30T11:33:26;11.00;99.90
22734;DHT22;11534;51.994;5.692;2024-01-30T11:35:53;10.90;99.90
22734;DHT22;11534;51.994;5.692;2024-01-30T11:38:18;10.90;99.90
22734;DHT22;11534;51.994;5.692;2024-01-30T11:40:44;10.90;99.90
22734;DHT22;11534;51.994;5.692;2024-01-30T11:43:10;11.00;99.90
22734;DHT22;11534;51.994;5.692;2024-01-30T11:45:36;11.00;99.90
22734;DHT22;11534;51.994;5.692;2024-01-30T11:48:02;11.00;99.90
22734;DHT22;11534;51.994;5.692;2024-01-30T11:50:35;10.90;99.90
22734;DHT22;11534;51.994;5.692;2024-01-30T11:53:04;10.90;99.90
22734;DHT22;11534;51.994;5.692;2024-01-30T11:55:30;10.90;99.90
22734;DHT22;11534;51.994;5.692;2024-01-30T11:57:59;11.00;99.90
22734;DHT22;11534;51.994;5.692;2024-01-30T12:00:25;11.00;99.90
22734;DHT22;11534;51.994;5.692;2024-01-30T12:02:52;10.90;99.90
22734;DHT22;11534;51.994;5.692;2024-01-30T12:05:21;10.80;99.90
22734;DHT22;11534;51.994;5.692;2024-01-30T12:07:47;10.70;99.90
22734;DHT22;11534;51.994;5.692;2024-01-30T12:10:13;10.60;99.90
22734;DHT22;11534;51.994;5.692;2024-01-30T12:12:42;10.60;99.90
22734;DHT22;11534;51.994;5.692;2024-01-30T12:15:09;10.60;99.90
22734;DHT22;11534;51.994;5.692;2024-01-30T12:17:35;10.60;99.90
22734;DHT22;11534;51.994;5.692;2024-01-30T12:20:04;10.50;99.90
22734;DHT22;11534;51.994;5.692;2024-01-30T12:22:45;10.50;99.90
22734;DHT22;11534;51.994;5.692;2024-01-30T12:25:13;10.50;99.90
22734;DHT22;11534;51.994;5.692;2024-01-30T12:27:39;10.60;99.90
22734;DHT22;11534;51.994;5.692;2024-01-30T12:30:08;10.60;99.90
22734;DHT22;11534;51.994;5.692;2024-01-30T12:32:44;10.50;99.90
22734;DHT22;11534;51.994;5.692;2024-01-30T12:35:11;10.40;99.90
22734;DHT22;11534;51.994;5.692;2024-01-30T12:37:37;10.30;99.90
22734;DHT22;11534;51.994;5.692;2024-01-30T12:40:03;10.30;99.90
22734;DHT22;11534;51.994;5.692;2024-01-30T12:42:29;10.30;99.90
22734;DHT22;11534;51.994;5.692;2024-01-30T12:44:57;10.20;99.90
22734;DHT22;11534;51.994;5.692;2024-01-30T12:47:23;10.20;99.90
22734;DHT22;11534;51.994;5.692;2024-01-30T12:49:49;10.20;99.90
22734;DHT22;11534;51.994;5.692;2024-01-30T12:52:18;10.30;99.90
22734;DHT22;11534;51.994;5.692;2024-01-30T12:54:44;10.40;99.90
22734;DHT22;11534;51.994;5.692;2024-01-30T12:57:10;10.40;99.90
22734;DHT22;11534;51.994;5.692;2024-01-30T12:59:36;10.30;99.90
22734;DHT22;11534;51.994;5.692;2024-01-30T13:02:01;10.30;99.90
22734;DHT22;11534;51.994;5.692;2024-01-30T13:04:29;10.30;99.90
22734;DHT22;11534;51.994;5.692;2024-01-30T13:06:55;10.30;99.90
22734;DHT22;11534;51.994;5.692;2024-01-30T13:09:22;10.30;99.90
22734;DHT22;11534;51.994;5.692;2024-01-30T13:11:49;10.30;99.90
22734;DHT22;11534;51.994;5.692;2024-01-30T13:14:14;10.20;99.90
22734;DHT22;11534;51.994;5.692;2024-01-30T13:16:40;10.20;99.90
22734;DHT22;11534;51.994;5.692;2024-01-30T13:19:06;10.10;99.90
22734;DHT22;11534;51.994;5.692;2024-01-30T13:21:31;10.10;99.90
22734;DHT22;11534;51.994;5.692;2024-01-30T13:23:57;10.00;99.90
22734;DHT22;11534;51.994;5.692;2024-01-30T13:26:23;9.90;99.90
22734;DHT22;11534;51.994;5.692;2024-01-30T13:28:49;9.90;99.90
22734;DHT22;11534;51.994;5.692;2024-01-30T13:31:15;9.70;99.90
22734;DHT22;11534;51.994;5.692;2024-01-30T13:33:42;9.60;99.90
22734;DHT22;11534;51.994;5.692;2024-01-30T13:36:09;9.60;99.90
22734;DHT22;11534;51.994;5.692;2024-01-30T13:38:35;9.50;99.90
22734;DHT22;11534;51.994;5.692;2024-01-30T13:41:01;9.50;99.90
22734;DHT22;11534;51.994;5.692;2024-01-30T13:43:28;9.40;99.90
22734;DHT22;11534;51.994;5.692;2024-01-30T13:45:53;9.40;99.90
22734;DHT22;11534;51.994;5.692;2024-01-30T13:48:19;9.30;99.90
22734;DHT22;11534;51.994;5.692;2024-01-30T13:50:45;9.30;99.90
22734;DHT22;11534;51.994;5.692;2024-01-30T13:53:11;9.30;99.90
22734;DHT22;11534;51.994;5.692;2024-01-30T13:55:37;9.30;99.90
22734;DHT22;11534;51.994;5.692;2024-01-30T13:58:03;9.20;99.90
22734;DHT22;11534;51.994;5.692;2024-01-30T14:00:29;9.30;99.90
22734;DHT22;11534;51.994;5.692;2024-01-30T14:02:55;9.30;99.90
22734;DHT22;11534;51.994;5.692;2024-01-30T14:05:21;9.30;99.90
22734;DHT22;11534;51.994;5.692;2024-01-30T14:07:47;9.30;99.90
22734;DHT22;11534;51.994;5.692;2024-01-30T14:10:13;9.30;99.90
22734;DHT22;11534;51.994;5.692;2024-01-30T14:12:39;9.30;99.90
22734;DHT22;11534;51.994;5.692;2024-01-30T14:15:06;9.30;99.90
22734;DHT22;11534;51.994;5.692;2024-01-30T14:17:32;9.30;99.90
22734;DHT22;11534;51.994;5.692;2024-01-30T14:19:58;9.30;99.90
22734;DHT22;11534;51.994;5.692;2024-01-30T14:22:25;9.40;99.90
22734;DHT22;11534;51.994;5.692;2024-01-30T14:24:50;9.30;99.90
22734;DHT22;11534;51.994;5.692;2024-01-30T14:27:16;9.30;99.90
22734;DHT22;11534;51.994;5.692;2024-01-30T14:29:43;9.40;99.90
22734;DHT22;11534;51.994;5.692;2024-01-30T14:32:09;9.30;99.90
22734;DHT22;11534;51.994;5.692;2024-01-30T14:34:35;9.30;99.90
22734;DHT22;11534;51.994;5.692;2024-01-30T14:37:01;9.30;99.90
22734;DHT22;11534;51.994;5.692;2024-01-30T14:39:26;9.30;99.90
22734;DHT22;11534;51.994;5.692;2024-01-30T14:41:52;9.30;99.90
22734;DHT22;11534;51.994;5.692;2024-01-30T14:44:18;9.30;99.90
22734;DHT22;11534;51.994;5.692;2024-01-30T14:46:43;9.30;99.90
22734;DHT22;11534;51.994;5.692;2024-01-30T14:49:09;9.20;99.90
22734;DHT22;11534;51.994;5.692;2024-01-30T14:51:35;9.20;99.90
22734;DHT22;11534;51.994;5.692;2024-01-30T14:54:01;9.10;99.90
22734;DHT22;11534;51.994;5.692;2024-01-30T14:56:27;9.10;99.90
22734;DHT22;11534;51.994;5.692;2024-01-30T14:58:52;9.10;99.90
22734;DHT22;11534;51.994;5.692;2024-01-30T15:01:18;9.10;99.90
22734;DHT22;11534;51.994;5.692;2024-01-30T15:03:44;9.00;99.90
22734;DHT22;11534;51.994;5.692;2024-01-30T15:06:13;9.00;99.90
22734;DHT22;11534;51.994;5.692;2024-01-30T15:08:38;9.00;99.90
22734;DHT22;11534;51.994;5.692;2024-01-30T15:11:04;9.00;99.90
22734;DHT22;11534;51.994;5.692;2024-01-30T15:13:30;8.90;99.90
22734;DHT22;11534;51.994;5.692;2024-01-30T15:15:56;8.90;99.90
22734;DHT22;11534;51.994;5.692;2024-01-30T15:18:22;8.90;99.90
22734;DHT22;11534;51.994;5.692;2024-01-30T15:20:49;8.90;99.90
22734;DHT22;11534;51.994;5.692;2024-01-30T15:23:15;8.80;99.90
22734;DHT22;11534;51.994;5.692;2024-01-30T15:25:41;8.80;99.90
22734;DHT22;11534;51.994;5.692;2024-01-30T15:28:07;8.90;99.90
22734;DHT22;11534;51.994;5.692;2024-01-30T15:30:35;8.80;99.90
22734;DHT22;11534;51.994;5.692;2024-01-30T15:33:00;8.80;99.90
22734;DHT22;11534;51.994;5.692;2024-01-30T15:35:27;8.80;99.90
22734;DHT22;11534;51.994;5.692;2024-01-30T15:37:53;8.80;99.90
22734;DHT22;11534;51.994;5.692;2024-01-30T15:40:18;8.70;99.90